createdAt,value
2016-11-26T00:00:21.582Z,13.2
2016-11-26T00:01:33.103Z,13.12
2016-11-26T00:02:44.314Z,13.23
2016-11-26T00:03:56.108Z,13.33
2016-11-26T00:05:08.003Z,13.16
2016-11-26T00:06:19.896Z,13.22
2016-11-26T00:07:31.505Z,13.16
2016-11-26T00:08:44.130Z,13.08
2016-11-26T00:09:54.809Z,13.05
2016-11-26T00:11:06.958Z,13.08
2016-11-26T00:12:19.487Z,13.05
2016-11-26T00:13:31.339Z,13.08
2016-11-26T00:14:43.273Z,13.19
2016-11-26T00:15:54.776Z,13.22
2016-11-26T00:17:06.699Z,13.03
2016-11-26T00:18:17.628Z,13.19
2016-11-26T00:19:29.646Z,13.16
2016-11-26T00:20:42.352Z,13.27
2016-11-26T00:21:54.885Z,13.22
2016-11-26T00:23:06.130Z,13.3
2016-11-26T00:24:16.034Z,13.23
2016-11-26T00:25:27.880Z,13.31
2016-11-26T00:26:39.885Z,13.37
2016-11-26T00:27:50.980Z,13.46
2016-11-26T00:29:03.827Z,13.3
2016-11-26T00:30:16.100Z,13.3
2016-11-26T00:31:28.240Z,13.19
2016-11-26T00:32:39.297Z,13.15
2016-11-26T00:33:52.042Z,13.15
2016-11-26T00:35:04.870Z,13.38
2016-11-26T00:36:16.047Z,13.39
2016-11-26T00:37:26.974Z,13.47
2016-11-26T00:38:38.290Z,13.52
2016-11-26T00:39:49.612Z,13.49
2016-11-26T00:41:01.891Z,13.35
2016-11-26T00:42:14.191Z,13.47
2016-11-26T00:43:26.135Z,13.5
2016-11-26T00:44:37.421Z,13.5
2016-11-26T00:45:49.860Z,13.53
2016-11-26T00:47:01.711Z,13.54
2016-11-26T00:48:12.967Z,13.52
2016-11-26T00:49:24.561Z,13.49
2016-11-26T00:50:35.608Z,13.33
2016-11-26T00:51:47.610Z,13.37
2016-11-26T00:52:58.632Z,13.44
2016-11-26T00:54:10.833Z,13.41
2016-11-26T00:55:22.871Z,13.28
2016-11-26T00:56:34.122Z,13.04
2016-11-26T00:57:46.329Z,13.27
2016-11-26T00:58:58.074Z,13.44
2016-11-26T01:00:09.899Z,13.49
2016-11-26T01:01:21.366Z,13.59
2016-11-26T01:02:33.525Z,13.5
2016-11-26T01:03:45.248Z,13.47
2016-11-26T01:04:57.650Z,13.47
2016-11-26T01:06:10.802Z,13.44
2016-11-26T01:07:22.840Z,13.31
2016-11-26T01:08:35.573Z,13.46
2016-11-26T01:09:46.868Z,13.31
2016-11-26T01:10:58.955Z,13.18
2016-11-26T01:12:10.629Z,13.15
2016-11-26T01:13:22.714Z,13.23
2016-11-26T01:14:33.441Z,13.16
2016-11-26T01:15:46.197Z,13.16
2016-11-26T01:16:56.648Z,13.2
2016-11-26T01:18:07.902Z,13.22
2016-11-26T01:19:20.569Z,13.23
2016-11-26T01:20:32.081Z,13.13
2016-11-26T01:21:44.108Z,13.28
2016-11-26T01:22:55.982Z,13.37
2016-11-26T01:24:06.857Z,13.41
2016-11-26T01:25:19.487Z,13.52
2016-11-26T01:26:30.191Z,13.41
2016-11-26T01:27:41.132Z,13.38
2016-11-26T01:28:52.394Z,13.28
2016-11-26T01:30:04.866Z,13.31
2016-11-26T01:31:18.175Z,13.31
2016-11-26T01:32:29.633Z,13.41
2016-11-26T01:33:40.641Z,13.37
2016-11-26T01:34:51.355Z,13.44
2016-11-26T01:36:02.021Z,13.49
2016-11-26T01:37:12.875Z,13.5
2016-11-26T01:38:25.549Z,13.41
2016-11-26T01:39:38.123Z,13.47
2016-11-26T01:40:50.329Z,13.42
2016-11-26T01:42:01.970Z,13.44
2016-11-26T01:43:13.842Z,13.35
2016-11-26T01:44:24.430Z,13.41
2016-11-26T01:45:35.966Z,13.38
2016-11-26T01:46:48.132Z,13.44
2016-11-26T01:48:00.038Z,13.56
2016-11-26T01:49:13.242Z,13.59
2016-11-26T01:50:23.705Z,13.41
2016-11-26T01:51:35.570Z,13.47
2016-11-26T01:52:46.970Z,13.42
2016-11-26T01:53:58.463Z,13.52
2016-11-26T01:55:10.478Z,13.62
2016-11-26T01:56:22.968Z,13.56
2016-11-26T01:57:35.681Z,13.54
2016-11-26T01:58:47.561Z,13.47
2016-11-26T01:59:58.030Z,13.57
2016-11-26T02:01:11.269Z,13.6
2016-11-26T02:02:23.015Z,13.63
2016-11-26T02:03:35.484Z,13.47
2016-11-26T02:04:47.134Z,13.65
2016-11-26T02:05:59.003Z,13.59
2016-11-26T02:07:11.254Z,13.67
2016-11-26T02:08:23.005Z,13.63
2016-11-26T02:09:34.505Z,13.65
2016-11-26T02:10:47.239Z,13.72
2016-11-26T02:12:00.009Z,13.62
2016-11-26T02:13:12.716Z,13.57
2016-11-26T02:14:25.068Z,13.65
2016-11-26T02:15:36.549Z,13.72
2016-11-26T02:16:48.087Z,13.77
2016-11-26T02:18:00.338Z,13.71
2016-11-26T02:19:12.510Z,13.74
2016-11-26T02:20:25.212Z,13.72
2016-11-26T02:21:36.626Z,13.72
2016-11-26T02:22:47.713Z,13.79
2016-11-26T02:23:59.187Z,14.04
2016-11-26T02:25:11.038Z,14
2016-11-26T02:26:23.710Z,13.97
2016-11-26T02:27:33.722Z,13.99
2016-11-26T02:28:44.209Z,13.9
2016-11-26T02:29:55.373Z,13.89
2016-11-26T02:31:06.743Z,13.89
2016-11-26T02:32:19.008Z,14.04
2016-11-26T02:33:31.731Z,14.07
2016-11-26T02:34:43.526Z,14.15
2016-11-26T02:35:55.639Z,14.11
2016-11-26T02:37:06.850Z,14.18
2016-11-26T02:38:19.459Z,14.11
2016-11-26T02:39:31.388Z,14.17
2016-11-26T02:40:43.483Z,13.99
2016-11-26T02:41:55.540Z,14.15
2016-11-26T02:43:07.006Z,14
2016-11-26T02:44:19.363Z,14.05
2016-11-26T02:45:31.003Z,14
2016-11-26T02:46:43.686Z,14.12
2016-11-26T02:47:55.865Z,14.17
2016-11-26T02:49:07.624Z,14.08
2016-11-26T02:50:19.351Z,13.78
2016-11-26T02:51:31.393Z,13.86
2016-11-26T02:52:42.445Z,13.77
2016-11-26T02:53:54.812Z,13.89
2016-11-26T02:55:05.963Z,13.93
2016-11-26T02:56:17.975Z,13.74
2016-11-26T02:57:30.519Z,13.79
2016-11-26T02:58:41.256Z,13.72
2016-11-26T02:59:52.836Z,13.72
2016-11-26T03:01:04.427Z,13.74
2016-11-26T03:02:16.101Z,13.86
2016-11-26T03:03:27.555Z,13.81
2016-11-26T03:04:39.405Z,13.62
2016-11-26T03:05:51.439Z,13.63
2016-11-26T03:07:03.220Z,13.68
2016-11-26T03:08:14.596Z,13.74
2016-11-26T03:09:26.802Z,13.75
2016-11-26T03:10:39.292Z,13.81
2016-11-26T03:11:51.187Z,13.89
2016-11-26T03:13:03.289Z,13.89
2016-11-26T03:14:15.009Z,13.78
2016-11-26T03:15:27.128Z,13.74
2016-11-26T03:16:39.123Z,13.7
2016-11-26T03:17:50.354Z,13.57
2016-11-26T03:19:03.590Z,13.7
2016-11-26T03:20:15.399Z,13.77
2016-11-26T03:21:27.826Z,13.83
2016-11-26T03:22:39.370Z,13.72
2016-11-26T03:23:50.868Z,13.65
2016-11-26T03:25:03.535Z,13.65
2016-11-26T03:26:14.911Z,13.63
2016-11-26T03:27:26.749Z,13.52
2016-11-26T03:28:38.695Z,13.5
2016-11-26T03:29:51.899Z,13.49
2016-11-26T03:31:03.708Z,13.56
2016-11-26T03:32:14.979Z,13.54
2016-11-26T03:33:26.364Z,13.5
2016-11-26T03:34:39.042Z,13.71
2016-11-26T03:35:49.853Z,13.63
2016-11-26T03:37:01.755Z,13.47
2016-11-26T03:38:13.754Z,13.62
2016-11-26T03:39:25.157Z,13.68
2016-11-26T03:40:37.290Z,13.59
2016-11-26T03:41:49.579Z,13.68
2016-11-26T03:43:00.755Z,13.6
2016-11-26T03:44:12.830Z,13.85
2016-11-26T03:45:24.854Z,13.89
2016-11-26T03:46:37.393Z,13.78
2016-11-26T03:47:49.818Z,13.78
2016-11-26T03:49:02.511Z,13.75
2016-11-26T03:50:13.812Z,13.86
2016-11-26T03:51:25.175Z,13.87
2016-11-26T03:52:36.932Z,13.77
2016-11-26T03:53:48.460Z,13.72
2016-11-26T03:55:00.027Z,13.95
2016-11-26T03:56:12.060Z,13.99
2016-11-26T03:57:24.735Z,13.87
2016-11-26T03:58:36.997Z,13.92
2016-11-26T03:59:48.400Z,13.78
2016-11-26T04:00:59.878Z,13.75
2016-11-26T04:02:11.367Z,13.85
2016-11-26T04:03:22.594Z,13.92
2016-11-26T04:04:33.860Z,13.81
2016-11-26T04:05:46.418Z,13.79
2016-11-26T04:06:58.251Z,13.81
2016-11-26T04:08:10.105Z,13.97
2016-11-26T04:09:21.848Z,14.1
2016-11-26T04:10:34.451Z,13.87
2016-11-26T04:11:46.708Z,13.9
2016-11-26T04:12:58.776Z,13.89
2016-11-26T04:14:11.430Z,13.83
2016-11-26T04:15:22.424Z,14.03
2016-11-26T04:16:34.075Z,14.08
2016-11-26T04:17:45.749Z,14.04
2016-11-26T04:18:57.493Z,13.96
2016-11-26T04:20:08.558Z,13.95
2016-11-26T04:21:20.300Z,14.05
2016-11-26T04:22:30.978Z,14.11
2016-11-26T04:23:43.842Z,14.07
2016-11-26T04:24:56.263Z,13.95
2016-11-26T04:26:08.911Z,14
2016-11-26T04:27:21.648Z,14.07
2016-11-26T04:28:34.117Z,14.03
2016-11-26T04:29:46.702Z,13.75
2016-11-26T04:30:58.344Z,13.89
2016-11-26T04:32:10.204Z,13.71
2016-11-26T04:33:22.469Z,13.74
2016-11-26T04:34:33.451Z,13.83
2016-11-26T04:35:45.031Z,13.81
2016-11-26T04:36:55.570Z,13.53
2016-11-26T04:38:07.527Z,13.54
2016-11-26T04:39:18.197Z,13.59
2016-11-26T04:40:30.336Z,13.67
2016-11-26T04:41:41.505Z,13.56
2016-11-26T04:42:52.085Z,13.65
2016-11-26T04:44:03.762Z,13.86
2016-11-26T04:45:15.589Z,13.9
2016-11-26T04:46:28.349Z,13.86
2016-11-26T04:47:40.567Z,13.85
2016-11-26T04:48:53.243Z,14
2016-11-26T04:50:04.915Z,13.87
2016-11-26T04:51:16.371Z,13.68
2016-11-26T04:52:29.128Z,13.7
2016-11-26T04:53:41.365Z,13.68
2016-11-26T04:54:53.440Z,13.6
2016-11-26T04:56:06.527Z,13.78
2016-11-26T04:57:18.082Z,13.77
2016-11-26T04:58:29.321Z,13.65
2016-11-26T04:59:42.580Z,13.59
2016-11-26T05:00:54.533Z,13.6
2016-11-26T05:02:07.193Z,13.67
2016-11-26T05:03:19.667Z,13.52
2016-11-26T05:04:31.104Z,13.56
2016-11-26T05:05:42.189Z,13.41
2016-11-26T05:06:53.646Z,13.47
2016-11-26T05:08:05.560Z,13.46
2016-11-26T05:09:17.852Z,13.41
2016-11-26T05:10:29.005Z,13.46
2016-11-26T05:11:40.017Z,13.47
2016-11-26T05:12:52.134Z,13.5
2016-11-26T05:14:03.321Z,13.49
2016-11-26T05:15:15.825Z,13.63
2016-11-26T05:16:28.522Z,13.47
2016-11-26T05:17:39.847Z,13.47
2016-11-26T05:18:52.546Z,13.52
2016-11-26T05:20:04.647Z,13.65
2016-11-26T05:21:16.766Z,13.49
2016-11-26T05:22:29.808Z,13.6
2016-11-26T05:23:42.122Z,13.54
2016-11-26T05:24:53.606Z,13.28
2016-11-26T05:26:05.605Z,13.5
2016-11-26T05:27:16.593Z,13.49
2016-11-26T05:28:29.202Z,13.41
2016-11-26T05:29:40.904Z,13.39
2016-11-26T05:30:52.614Z,13.52
2016-11-26T05:32:03.462Z,13.46
2016-11-26T05:33:15.522Z,13.41
2016-11-26T05:34:28.087Z,13.23
2016-11-26T05:35:39.719Z,13.25
2016-11-26T05:36:50.190Z,13.22
2016-11-26T05:38:01.172Z,13.38
2016-11-26T05:39:11.632Z,13.31
2016-11-26T05:40:23.922Z,13.42
2016-11-26T05:41:35.365Z,13.35
2016-11-26T05:42:46.535Z,13.52
2016-11-26T05:43:59.823Z,13.42
2016-11-26T05:45:12.438Z,13.38
2016-11-26T05:46:24.313Z,13.42
2016-11-26T05:47:36.581Z,13.31
2016-11-26T05:48:49.107Z,13.23
2016-11-26T05:50:00.116Z,13.22
2016-11-26T05:51:10.982Z,13.33
2016-11-26T05:52:22.313Z,13.44
2016-11-26T05:53:32.975Z,13.23
2016-11-26T05:54:45.202Z,13.49
2016-11-26T05:55:57.763Z,13.47
2016-11-26T05:57:09.671Z,13.57
2016-11-26T05:58:21.050Z,13.63
2016-11-26T05:59:33.193Z,13.42
2016-11-26T06:00:46.357Z,13.49
2016-11-26T06:01:57.688Z,13.59
2016-11-26T06:03:10.474Z,13.6
2016-11-26T06:04:22.181Z,13.44
2016-11-26T06:05:34.916Z,13.5
2016-11-26T06:06:46.354Z,13.6
2016-11-26T06:07:58.423Z,13.6
2016-11-26T06:09:09.558Z,13.41
2016-11-26T06:10:21.740Z,13.47
2016-11-26T06:11:34.499Z,13.12
2016-11-26T06:12:46.513Z,13.2
2016-11-26T06:13:58.351Z,13.25
2016-11-26T06:15:11.035Z,13.35
2016-11-26T06:16:22.790Z,13.38
2016-11-26T06:17:33.863Z,13.46
2016-11-26T06:18:45.847Z,13.04
2016-11-26T06:19:58.399Z,13.28
2016-11-26T06:21:11.294Z,13.46
2016-11-26T06:22:22.904Z,13.53
2016-11-26T06:23:34.895Z,13.6
2016-11-26T06:24:46.419Z,13.52
2016-11-26T06:25:58.184Z,13.63
2016-11-26T06:27:10.659Z,13.65
2016-11-26T06:28:23.008Z,13.77
2016-11-26T06:29:34.080Z,13.75
2016-11-26T06:30:45.498Z,13.86
2016-11-26T06:31:57.280Z,13.86
2016-11-26T06:33:09.512Z,13.74
2016-11-26T06:34:21.671Z,13.71
2016-11-26T06:35:32.706Z,13.37
2016-11-26T06:36:44.049Z,13.46
2016-11-26T06:37:56.405Z,13.62
2016-11-26T06:39:08.295Z,13.86
2016-11-26T06:40:20.855Z,13.9
2016-11-26T06:41:33.360Z,13.9
2016-11-26T06:42:44.428Z,13.92
2016-11-26T06:43:57.611Z,13.93
2016-11-26T06:45:08.142Z,14.05
2016-11-26T06:46:20.578Z,14.12
2016-11-26T06:47:33.333Z,14.1
2016-11-26T06:48:45.483Z,14
2016-11-26T06:49:57.064Z,13.78
2016-11-26T06:51:08.459Z,13.97
2016-11-26T06:52:20.801Z,13.87
2016-11-26T06:53:32.235Z,13.71
2016-11-26T06:54:43.871Z,13.62
2016-11-26T06:55:56.279Z,13.63
2016-11-26T06:57:08.735Z,13.85
2016-11-26T06:58:21.046Z,13.9
2016-11-26T06:59:32.949Z,13.77
2016-11-26T07:00:45.139Z,13.86
2016-11-26T07:01:56.998Z,14.05
2016-11-26T07:03:09.638Z,14.15
2016-11-26T07:04:21.104Z,14.03
2016-11-26T07:05:32.382Z,13.93
2016-11-26T07:06:44.810Z,13.89
2016-11-26T07:07:57.591Z,14
2016-11-26T07:09:10.342Z,14.04
2016-11-26T07:10:21.694Z,14
2016-11-26T07:11:32.648Z,14.15
2016-11-26T07:12:45.242Z,14.11
2016-11-26T07:13:56.807Z,13.93
2016-11-26T07:15:09.585Z,14.07
2016-11-26T07:16:21.179Z,13.93
2016-11-26T07:17:33.330Z,13.96
2016-11-26T07:18:44.645Z,14
2016-11-26T07:19:56.929Z,13.74
2016-11-26T07:21:09.532Z,13.71
2016-11-26T07:22:20.956Z,13.68
2016-11-26T07:23:33.221Z,13.49
2016-11-26T07:24:46.069Z,13.38
2016-11-26T07:25:58.290Z,13.54
2016-11-26T07:27:11.511Z,13.54
2016-11-26T07:28:22.941Z,13.7
2016-11-26T07:29:34.833Z,13.79
2016-11-26T07:30:46.650Z,13.77
2016-11-26T07:31:58.958Z,13.75
2016-11-26T07:33:11.549Z,13.47
2016-11-26T07:34:23.642Z,13.63
2016-11-26T07:35:35.805Z,13.57
2016-11-26T07:36:46.665Z,13.57
2016-11-26T07:37:58.863Z,13.31
2016-11-26T07:39:10.307Z,13.42
2016-11-26T07:40:21.590Z,13.67
2016-11-26T07:41:34.364Z,13.75
2016-11-26T07:42:46.111Z,13.86
2016-11-26T07:43:58.366Z,13.83
2016-11-26T07:45:11.541Z,13.42
2016-11-26T07:46:24.597Z,13.46
2016-11-26T07:47:37.757Z,13.47
2016-11-26T07:48:48.923Z,13.42
2016-11-26T07:50:00.638Z,13.33
2016-11-26T07:51:13.820Z,13.33
2016-11-26T07:52:24.695Z,13.13
2016-11-26T07:53:36.941Z,13.15
2016-11-26T07:54:50.221Z,13.04
2016-11-26T07:56:03.418Z,13.19
2016-11-26T07:57:15.984Z,13.16
2016-11-26T07:58:28.272Z,13
2016-11-26T07:59:39.203Z,12.93
2016-11-26T08:00:50.140Z,12.91
2016-11-26T08:02:01.552Z,12.95
2016-11-26T08:03:14.155Z,12.97
2016-11-26T08:04:26.012Z,12.97
2016-11-26T08:05:38.806Z,13
2016-11-26T08:06:51.090Z,12.98
2016-11-26T08:08:01.875Z,13
2016-11-26T08:09:12.738Z,13.03
2016-11-26T08:10:23.839Z,13.08
2016-11-26T08:11:36.059Z,13.22
2016-11-26T08:12:48.245Z,12.97
2016-11-26T08:13:58.867Z,13
2016-11-26T08:15:11.734Z,13.12
2016-11-26T08:16:23.457Z,13.19
2016-11-26T08:17:34.636Z,13.31
2016-11-26T08:18:46.672Z,13.39
2016-11-26T08:19:58.691Z,13.44
2016-11-26T08:21:10.854Z,13.46
2016-11-26T08:22:22.681Z,13.62
2016-11-26T08:23:34.367Z,13.65
2016-11-26T08:24:47.203Z,13.54
2016-11-26T08:25:58.555Z,13.67
2016-11-26T08:27:11.513Z,13.67
2016-11-26T08:28:23.603Z,13.71
2016-11-26T08:29:34.528Z,13.63
2016-11-26T08:30:47.848Z,13.67
2016-11-26T08:31:59.767Z,13.6
2016-11-26T08:33:11.182Z,13.75
2016-11-26T08:34:24.403Z,13.9
2016-11-26T08:35:37.236Z,13.67
2016-11-26T08:36:49.806Z,13.63
2016-11-26T08:38:02.514Z,13.7
2016-11-26T08:39:15.412Z,13.78
2016-11-26T08:40:28.118Z,13.89
2016-11-26T08:41:41.341Z,13.96
2016-11-26T08:42:54.461Z,13.85
2016-11-26T08:44:05.248Z,13.65
2016-11-26T08:45:17.203Z,13.75
2016-11-26T08:46:28.982Z,13.81
2016-11-26T08:47:40.803Z,13.81
2016-11-26T08:48:51.218Z,13.89
2016-11-26T08:50:01.523Z,14.04
2016-11-26T08:51:12.952Z,14.11
2016-11-26T08:52:24.900Z,14.04
2016-11-26T08:53:37.203Z,13.89
2016-11-26T08:54:48.185Z,13.77
2016-11-26T08:56:00.477Z,13.71
2016-11-26T08:57:11.445Z,13.59
2016-11-26T08:58:23.018Z,13.74
2016-11-26T08:59:33.920Z,13.72
2016-11-26T09:00:44.711Z,13.78
2016-11-26T09:01:55.932Z,13.62
2016-11-26T09:03:07.505Z,13.75
2016-11-26T09:04:18.896Z,13.89
2016-11-26T09:05:30.516Z,13.9
2016-11-26T09:06:41.755Z,13.99
2016-11-26T09:07:52.748Z,13.99
2016-11-26T09:09:05.516Z,14.05
2016-11-26T09:10:17.847Z,14.18
2016-11-26T09:11:29.990Z,14.4
2016-11-26T09:12:41.989Z,14.12
2016-11-26T09:13:53.111Z,14.07
2016-11-26T09:15:04.895Z,14.18
2016-11-26T09:16:16.339Z,14.12
2016-11-26T09:17:28.987Z,14
2016-11-26T09:18:41.294Z,14.18
2016-11-26T09:19:52.289Z,14.36
2016-11-26T09:21:03.578Z,14.22
2016-11-26T09:22:15.787Z,14.22
2016-11-26T09:23:27.952Z,14.28
2016-11-26T09:24:39.999Z,14.55
2016-11-26T09:25:51.070Z,14.63
2016-11-26T09:27:02.837Z,14.58
2016-11-26T09:28:14.518Z,14.62
2016-11-26T09:29:27.786Z,14.63
2016-11-26T09:30:41.064Z,14.41
2016-11-26T09:31:51.709Z,14.59
2016-11-26T09:33:03.774Z,14.88
2016-11-26T09:34:15.231Z,14.5
2016-11-26T09:35:26.312Z,14.36
2016-11-26T09:36:38.043Z,14.59
2016-11-26T09:37:50.739Z,14.63
2016-11-26T09:39:03.052Z,14.6
2016-11-26T09:40:13.549Z,14.78
2016-11-26T09:41:24.613Z,14.88
2016-11-26T09:42:36.589Z,15.37
2016-11-26T09:43:48.165Z,15.35
2016-11-26T09:44:58.842Z,15.46
2016-11-26T09:46:10.585Z,16.04
2016-11-26T09:47:23.215Z,16.58
2016-11-26T09:48:36.467Z,16.54
2016-11-26T09:49:48.688Z,15.84
2016-11-26T09:50:58.833Z,15.8
2016-11-26T09:52:10.484Z,15.92
2016-11-26T09:53:21.434Z,16
2016-11-26T09:54:33.666Z,15.76
2016-11-26T09:55:45.894Z,15.92
2016-11-26T09:56:57.906Z,16
2016-11-26T09:58:09.043Z,16.12
2016-11-26T09:59:20.070Z,16.42
2016-11-26T10:00:31.870Z,16.58
2016-11-26T10:01:44.300Z,16.5
2016-11-26T10:02:57.503Z,16.53
2016-11-26T10:04:09.586Z,16.64
2016-11-26T10:05:20.528Z,16.83
2016-11-26T10:06:31.228Z,16.74
2016-11-26T10:07:41.867Z,16.9
2016-11-26T10:08:52.962Z,16.28
2016-11-26T10:10:04.392Z,16.36
2016-11-26T10:11:17.543Z,16.33
2016-11-26T10:12:29.419Z,15.95
2016-11-26T10:13:41.353Z,16.24
2016-11-26T10:14:53.340Z,16.09
2016-11-26T10:16:05.628Z,16.26
2016-11-26T10:17:17.687Z,16.05
2016-11-26T10:18:28.984Z,16.08
2016-11-26T10:19:41.739Z,16
2016-11-26T10:20:53.348Z,16.21
2016-11-26T10:22:05.981Z,16.24
2016-11-26T10:23:17.041Z,16.39
2016-11-26T10:24:27.590Z,16.1
2016-11-26T10:25:39.453Z,16.35
2016-11-26T10:26:52.065Z,16.05
2016-11-26T10:28:04.435Z,16.02
2016-11-26T10:29:15.212Z,16.13
2016-11-26T10:30:26.593Z,16.24
2016-11-26T10:31:37.999Z,16.36
2016-11-26T10:32:50.829Z,16.35
2016-11-26T10:34:01.839Z,16.08
2016-11-26T10:35:13.578Z,16.1
2016-11-26T10:36:26.871Z,16.35
2016-11-26T10:37:39.454Z,16.16
2016-11-26T10:38:52.687Z,16.17
2016-11-26T10:40:03.675Z,16.2
2016-11-26T10:41:14.687Z,16.1
2016-11-26T10:42:25.704Z,15.79
2016-11-26T10:43:37.143Z,15.64
2016-11-26T10:44:47.149Z,15.46
2016-11-26T10:45:58.654Z,15.65
2016-11-26T10:47:09.311Z,15.65
2016-11-26T10:48:21.358Z,15.58
2016-11-26T10:49:33.292Z,15.44
2016-11-26T10:50:44.860Z,15.24
2016-11-26T10:51:55.544Z,15.15
2016-11-26T10:53:07.776Z,15.17
2016-11-26T10:54:19.260Z,15.24
2016-11-26T10:55:31.375Z,15.21
2016-11-26T10:56:44.158Z,15.1
2016-11-26T10:57:57.095Z,15.25
2016-11-26T10:59:10.272Z,15.27
2016-11-26T11:00:21.158Z,15.28
2016-11-26T11:01:33.221Z,15.35
2016-11-26T11:02:44.060Z,15.27
2016-11-26T11:03:55.532Z,15.46
2016-11-26T11:05:06.932Z,15.4
2016-11-26T11:06:18.496Z,15.36
2016-11-26T11:07:29.938Z,15.39
2016-11-26T11:08:41.764Z,15.31
2016-11-26T11:09:54.426Z,15.31
2016-11-26T11:11:05.922Z,15.33
2016-11-26T11:12:17.263Z,15.22
2016-11-26T11:13:29.785Z,15.24
2016-11-26T11:14:41.645Z,15.36
2016-11-26T11:15:54.630Z,15.22
2016-11-26T11:17:07.317Z,15.22
2016-11-26T11:18:18.687Z,15.31
2016-11-26T11:19:30.911Z,15.24
2016-11-26T11:20:42.481Z,15.17
2016-11-26T11:21:54.418Z,15.29
2016-11-26T11:23:05.149Z,15.46
2016-11-26T11:24:15.878Z,15.42
2016-11-26T11:25:27.845Z,15.51
2016-11-26T11:26:39.254Z,15.52
2016-11-26T11:27:51.675Z,15.49
2016-11-26T11:29:04.367Z,15.46
2016-11-26T11:30:15.949Z,15.19
2016-11-26T11:31:26.888Z,14.94
2016-11-26T11:32:39.432Z,14.88
2016-11-26T11:33:50.797Z,14.96
2016-11-26T11:35:04.003Z,14.96
2016-11-26T11:36:17.288Z,14.85
2016-11-26T11:37:29.854Z,14.92
2016-11-26T11:38:41.102Z,14.96
2016-11-26T11:39:53.588Z,14.91
2016-11-26T11:41:03.245Z,14.92
2016-11-26T11:42:15.839Z,14.86
2016-11-26T11:43:28.057Z,14.77
2016-11-26T11:44:40.226Z,14.84
2016-11-26T11:45:51.784Z,14.86
2016-11-26T11:47:03.292Z,14.72
2016-11-26T11:48:14.659Z,14.55
2016-11-26T11:49:26.032Z,14.51
2016-11-26T11:50:37.543Z,14.43
2016-11-26T11:51:48.908Z,14.33
2016-11-26T11:53:02.087Z,14.22
2016-11-26T11:54:14.675Z,14.1
2016-11-26T11:55:25.838Z,14.14
2016-11-26T11:56:36.511Z,14.05
2016-11-26T11:57:48.357Z,14.12
2016-11-26T11:58:59.916Z,14.04
2016-11-26T12:00:11.868Z,14.11
2016-11-26T12:01:23.151Z,14.08
2016-11-26T12:02:34.059Z,14.1
2016-11-26T12:03:45.471Z,14.08
2016-11-26T12:04:55.781Z,14.1
2016-11-26T12:06:07.507Z,14.1
2016-11-26T12:07:17.898Z,14.26
2016-11-26T12:08:29.247Z,14.29
2016-11-26T12:09:41.101Z,14.37
2016-11-26T12:10:53.069Z,14.33
2016-11-26T12:12:04.851Z,14.35
2016-11-26T12:13:17.047Z,14.35
2016-11-26T12:14:29.021Z,14.48
2016-11-26T12:15:40.450Z,14.65
2016-11-26T12:16:52.862Z,14.63
2016-11-26T12:18:04.420Z,14.86
2016-11-26T12:19:15.360Z,14.77
2016-11-26T12:20:25.450Z,14.88
2016-11-26T12:21:36.273Z,15.02
2016-11-26T12:22:47.680Z,14.96
2016-11-26T12:23:58.905Z,15.19
2016-11-26T12:25:10.277Z,15.29
2016-11-26T12:26:21.137Z,15.37
2016-11-26T12:27:32.668Z,15.52
2016-11-26T12:28:44.566Z,15.83
2016-11-26T12:29:57.327Z,16.1
2016-11-26T12:31:09.220Z,16.05
2016-11-26T12:32:19.860Z,16.12
2016-11-26T12:33:31.571Z,16.28
2016-11-26T12:34:41.948Z,16.41
2016-11-26T12:35:53.339Z,16.08
2016-11-26T12:37:04.035Z,16.33
2016-11-26T12:38:15.075Z,16.74
2016-11-26T12:39:27.291Z,17.01
2016-11-26T12:40:39.253Z,17.09
2016-11-26T12:41:51.112Z,16.68
2016-11-26T12:43:02.772Z,16.28
2016-11-26T12:44:14.071Z,16.35
2016-11-26T12:45:25.359Z,16.15
2016-11-26T12:46:36.835Z,16.13
2016-11-26T12:47:48.700Z,16.46
2016-11-26T12:49:00.417Z,16.46
2016-11-26T12:50:12.569Z,16.54
2016-11-26T12:51:24.652Z,16.43
2016-11-26T12:52:36.104Z,16.56
2016-11-26T12:53:47.813Z,16.65
2016-11-26T12:54:59.258Z,16.58
2016-11-26T12:56:11.011Z,16.64
2016-11-26T12:57:23.620Z,16.39
2016-11-26T12:58:35.049Z,16.35
2016-11-26T12:59:46.783Z,16.31
2016-11-26T13:00:58.587Z,16.29
2016-11-26T13:02:10.473Z,16.47
2016-11-26T13:03:21.698Z,16.65
2016-11-26T13:04:32.113Z,16.78
2016-11-26T13:05:43.383Z,16.68
2016-11-26T13:06:55.444Z,16.75
2016-11-26T13:08:06.698Z,16.81
2016-11-26T13:09:18.733Z,16.86
2016-11-26T13:10:30.999Z,16.83
2016-11-26T13:11:43.456Z,17.16
2016-11-26T13:12:54.739Z,16.99
2016-11-26T13:14:07.904Z,17.12
2016-11-26T13:15:19.810Z,17.26
2016-11-26T13:16:31.268Z,17.33
2016-11-26T13:17:43.593Z,17.15
2016-11-26T13:18:55.941Z,17.2
2016-11-26T13:20:06.937Z,17.06
2016-11-26T13:21:18.868Z,17.09
2016-11-26T13:22:30.187Z,17.06
2016-11-26T13:23:42.852Z,16.97
2016-11-26T13:24:52.954Z,17.01
2016-11-26T13:26:04.424Z,16.99
2016-11-26T13:27:16.041Z,17.08
2016-11-26T13:28:28.011Z,17.04
2016-11-26T13:29:40.247Z,16.87
2016-11-26T13:30:51.922Z,16.94
2016-11-26T13:32:04.596Z,17.06
2016-11-26T13:33:15.753Z,16.9
2016-11-26T13:34:28.173Z,16.76
2016-11-26T13:35:39.474Z,16.87
2016-11-26T13:36:51.781Z,16.86
2016-11-26T13:38:02.578Z,16.99
2016-11-26T13:39:13.468Z,17.3
2016-11-26T13:40:25.469Z,17.2
2016-11-26T13:41:37.922Z,17.2
2016-11-26T13:42:48.134Z,17.3
2016-11-26T13:43:59.836Z,17.48
2016-11-26T13:45:10.856Z,17.29
2016-11-26T13:46:22.313Z,17.59
2016-11-26T13:47:33.433Z,17.49
2016-11-26T13:48:45.484Z,17.46
2016-11-26T13:49:56.988Z,17.22
2016-11-26T13:51:09.420Z,17.3
2016-11-26T13:52:21.021Z,17.16
2016-11-26T13:53:32.149Z,17.05
2016-11-26T13:54:43.532Z,17.04
2016-11-26T13:55:55.594Z,16.99
2016-11-26T13:57:06.531Z,17.02
2016-11-26T13:58:18.314Z,17.06
2016-11-26T13:59:30.036Z,17.19
2016-11-26T14:00:40.203Z,17.15
2016-11-26T14:01:52.584Z,17.08
2016-11-26T14:03:02.888Z,17.06
2016-11-26T14:04:14.582Z,17.16
2016-11-26T14:05:25.120Z,17.04
2016-11-26T14:06:35.908Z,17.02
2016-11-26T14:07:47.033Z,17.04
2016-11-26T14:08:59.275Z,17.2
2016-11-26T14:10:11.697Z,17.16
2016-11-26T14:11:23.542Z,17.04
2016-11-26T14:12:35.236Z,16.97
2016-11-26T14:13:46.515Z,17.04
2016-11-26T14:14:59.149Z,16.96
2016-11-26T14:16:11.252Z,17.05
2016-11-26T14:17:22.612Z,17.02
2016-11-26T14:18:33.451Z,17.09
2016-11-26T14:19:44.254Z,16.99
2016-11-26T14:20:57.123Z,17.16
2016-11-26T14:22:09.379Z,17.16
2016-11-26T14:23:20.640Z,17.09
2016-11-26T14:24:32.233Z,17.24
2016-11-26T14:25:42.636Z,17.2
2016-11-26T14:26:52.827Z,17.19
2016-11-26T14:28:05.540Z,17.09
2016-11-26T14:29:17.788Z,17.08
2016-11-26T14:30:29.117Z,17.14
2016-11-26T14:31:41.329Z,17.22
2016-11-26T14:32:52.496Z,17.06
2016-11-26T14:34:05.210Z,17.04
2016-11-26T14:35:16.115Z,17.12
2016-11-26T14:36:28.326Z,17.27
2016-11-26T14:37:40.261Z,17.3
2016-11-26T14:38:52.523Z,17.19
2016-11-26T14:40:04.368Z,17.27
2016-11-26T14:41:16.172Z,17.36
2016-11-26T14:42:28.491Z,17.3
2016-11-26T14:43:40.751Z,17.45
2016-11-26T14:44:51.478Z,17.44
2016-11-26T14:46:04.167Z,17.41
2016-11-26T14:47:15.379Z,17.39
2016-11-26T14:48:26.445Z,17.15
2016-11-26T14:49:37.680Z,17.24
2016-11-26T14:50:48.912Z,17.3
2016-11-26T14:52:00.515Z,17.3
2016-11-26T14:53:12.296Z,17.45
2016-11-26T14:54:23.320Z,17.49
2016-11-26T14:55:34.676Z,17.48
2016-11-26T14:56:46.809Z,17.34
2016-11-26T14:57:58.323Z,17.38
2016-11-26T14:59:10.693Z,17.42
2016-11-26T15:00:22.379Z,17.34
2016-11-26T15:01:35.173Z,17.49
2016-11-26T15:02:50.064Z,17.44
2016-11-26T15:04:03.482Z,17.48
2016-11-26T15:05:15.758Z,17.44
2016-11-26T15:06:27.789Z,17.45
2016-11-26T15:07:39.254Z,17.42
2016-11-26T15:08:50.909Z,17.65
2016-11-26T15:10:02.976Z,17.72
2016-11-26T15:11:15.155Z,17.48
2016-11-26T15:12:27.575Z,17.42
2016-11-26T15:13:39.579Z,17.42
2016-11-26T15:14:50.816Z,17.41
2016-11-26T15:16:02.600Z,17.46
2016-11-26T15:17:13.973Z,17.46
2016-11-26T15:18:25.307Z,17.54
2016-11-26T15:19:36.378Z,17.63
2016-11-26T15:20:47.658Z,17.54
2016-11-26T15:21:59.515Z,17.59
2016-11-26T15:23:11.039Z,17.48
2016-11-26T15:24:21.428Z,17.41
2016-11-26T15:25:32.799Z,17.54
2016-11-26T15:26:45.419Z,17.56
2016-11-26T15:27:56.833Z,17.54
2016-11-26T15:29:08.378Z,17.48